< Typhoon 198008 1980 Season Typhoon 198010 >
Typhoon 198009 (KIM)
General InformationTrack Information on Google MapsDetailed Wind Information || Disaster Info.ResourceGoogle EarthGE AnimationAtom FeedGeoJSON
Detalied Best Track (Time Zone = UTC)
Year Month Day Hour Lat. Long. Pressure (hPa) Wind (kt) Class Image Chart
1980 7 19 21 10.1 149.6 1008 0 2 -- Chart
1980 7 20 00 9.6 149.3 1008 0 2 -- Chart
1980 7 20 06 8.6 148.6 1004 0 2 -- Chart
1980 7 20 12 8.3 147.4 1004 0 2 -- Chart
1980 7 20 18 8.9 145.6 1004 0 2 -- Chart
1980 7 21 00 9.5 143.9 1004 0 2 -- Chart
1980 7 21 06 10.0 142.0 1004 0 2 -- Chart
1980 7 21 12 10.1 139.9 1002 0 2 -- Chart
1980 7 21 18 10.4 138.0 1000 35 3 -- Chart
1980 7 22 00 10.6 136.7 1000 35 3 -- Chart
1980 7 22 06 10.8 135.7 996 40 3 -- Chart
1980 7 22 12 11.1 134.5 992 40 3 -- Chart
1980 7 22 18 12.1 132.3 990 50 4 -- Chart
1980 7 23 00 12.8 130.6 980 60 4 -- Chart
1980 7 23 06 13.3 129.5 980 65 5 -- Chart
1980 7 23 12 13.7 128.2 975 70 5 -- Chart
1980 7 23 18 14.0 127.1 965 70 5 -- Chart
1980 7 24 00 14.4 126.0 950 75 5 -- Chart
1980 7 24 06 14.8 125.3 925 90 5 -- Chart
1980 7 24 12 15.4 124.4 910 100 5 -- Chart
1980 7 24 18 16.0 123.4 910 100 5 -- Chart
1980 7 25 00 17.0 122.3 950 80 5 -- Chart
1980 7 25 06 17.6 121.5 970 70 5 -- Chart
1980 7 25 12 18.1 120.5 980 60 4 -- Chart
1980 7 25 18 18.7 119.7 990 50 4 -- Chart
1980 7 26 00 19.2 118.6 990 50 4 -- Chart
1980 7 26 06 19.7 118.0 990 50 4 -- Chart
1980 7 26 12 20.2 117.3 990 50 4 -- Chart
1980 7 26 18 20.7 116.6 990 50 4 -- Chart
1980 7 27 00 21.5 116.1 990 45 3 -- Chart
1980 7 27 06 22.6 116.0 992 45 3 -- Chart
1980 7 27 12 23.8 115.2 996 40 3 -- Chart
1980 7 27 18 24.7 114.5 1000 0 2 -- Chart
Japan Meteorological Agency Best Track Data | Correction Date : 1992-10-21
< Typhoon 198008 1980 Season Typhoon 198010 >

Help